createdAt,value
2023-09-06T00:00:47.654Z,99.90
2023-09-06T00:03:35.262Z,99.90
2023-09-06T00:06:02.918Z,99.90
2023-09-06T00:08:30.411Z,99.90
2023-09-06T00:11:00.189Z,99.90
2023-09-06T00:13:27.305Z,99.90
2023-09-06T00:15:57.233Z,99.90
2023-09-06T00:18:27.201Z,99.90
2023-09-06T00:20:55.358Z,99.90
2023-09-06T00:23:22.484Z,99.90
2023-09-06T00:25:49.936Z,99.90
2023-09-06T00:28:21.894Z,99.90
2023-09-06T00:30:49.428Z,99.90
2023-09-06T00:33:16.722Z,99.90
2023-09-06T00:35:44.198Z,99.90
2023-09-06T00:38:13.606Z,99.90
2023-09-06T00:40:41.179Z,99.90
2023-09-06T00:43:09.540Z,99.90
2023-09-06T00:45:39.841Z,99.90
2023-09-06T00:48:10.509Z,99.90
2023-09-06T00:50:38.754Z,99.90
2023-09-06T00:53:10.182Z,99.90
2023-09-06T00:55:39.935Z,99.90
2023-09-06T00:58:07.819Z,99.90
2023-09-06T01:00:35.713Z,99.90
2023-09-06T01:03:03.072Z,99.90
2023-09-06T01:05:36.903Z,99.90
2023-09-06T01:08:06.123Z,99.90
2023-09-06T01:10:35.528Z,99.90
2023-09-06T01:13:02.820Z,99.90
2023-09-06T01:15:33.386Z,99.90
2023-09-06T01:18:03.179Z,99.90
2023-09-06T01:20:53.163Z,99.90
2023-09-06T01:23:53.127Z,99.90
2023-09-06T01:26:23.851Z,99.90
2023-09-06T01:28:51.473Z,99.90
2023-09-06T01:31:19.050Z,99.90
2023-09-06T01:33:50.697Z,99.90
2023-09-06T01:36:18.300Z,99.90
2023-09-06T01:38:45.398Z,99.90
2023-09-06T01:41:13.445Z,99.90
2023-09-06T01:43:40.626Z,99.90
2023-09-06T01:46:08.261Z,99.90
2023-09-06T01:48:35.599Z,99.90
2023-09-06T01:51:03.115Z,99.90
2023-09-06T01:53:30.392Z,99.90
2023-09-06T01:55:59.999Z,99.90
2023-09-06T01:58:29.776Z,99.90
2023-09-06T02:00:57.414Z,99.90
2023-09-06T02:03:27.256Z,99.90
2023-09-06T02:05:54.816Z,99.90
2023-09-06T02:08:21.873Z,99.90
2023-09-06T02:10:51.800Z,99.90
2023-09-06T02:13:18.991Z,99.90
2023-09-06T02:15:48.777Z,99.90
2023-09-06T02:18:20.214Z,99.90
2023-09-06T02:20:47.928Z,99.90
2023-09-06T02:23:15.026Z,99.90
2023-09-06T02:25:42.427Z,99.90
2023-09-06T02:28:11.819Z,99.90
2023-09-06T02:30:39.509Z,99.90
2023-09-06T02:33:06.987Z,99.90
2023-09-06T02:35:34.482Z,99.90
2023-09-06T02:38:03.842Z,99.90
2023-09-06T02:40:33.412Z,99.90
2023-09-06T02:43:00.544Z,99.90
2023-09-06T02:45:28.024Z,99.90
2023-09-06T02:47:57.466Z,99.90
2023-09-06T02:50:27.121Z,99.90
2023-09-06T02:52:55.061Z,99.90
2023-09-06T02:55:24.986Z,99.90
2023-09-06T02:57:52.130Z,99.90
2023-09-06T03:00:21.921Z,99.90
2023-09-06T03:02:49.043Z,99.90
2023-09-06T03:05:21.452Z,99.90
2023-09-06T03:07:51.406Z,99.90
2023-09-06T03:10:20.260Z,99.90
2023-09-06T03:13:02.406Z,99.90
2023-09-06T03:15:32.989Z,99.90
2023-09-06T03:18:00.421Z,99.90
2023-09-06T03:20:28.921Z,99.90
2023-09-06T03:22:58.955Z,99.90
2023-09-06T03:25:26.656Z,99.90
2023-09-06T03:27:58.750Z,99.90
2023-09-06T03:30:26.198Z,99.90
2023-09-06T03:32:53.308Z,99.90
2023-09-06T03:35:22.922Z,99.90
2023-09-06T03:37:50.398Z,99.90
2023-09-06T03:40:23.013Z,99.90
2023-09-06T03:42:50.123Z,99.90
2023-09-06T03:45:17.543Z,99.90
2023-09-06T03:47:44.762Z,99.90
2023-09-06T03:50:12.259Z,99.90
2023-09-06T03:52:39.445Z,99.90
2023-09-06T03:55:07.262Z,99.90
2023-09-06T03:57:34.316Z,99.90
2023-09-06T04:00:04.901Z,99.90
2023-09-06T04:02:34.381Z,99.90
2023-09-06T04:05:01.932Z,99.90
2023-09-06T04:07:31.436Z,99.90
2023-09-06T04:10:01.163Z,99.90
2023-09-06T04:12:28.326Z,99.90
2023-09-06T04:14:55.831Z,99.90
2023-09-06T04:17:25.216Z,99.90
2023-09-06T04:19:52.695Z,99.90
2023-09-06T04:22:19.773Z,99.90
2023-09-06T04:24:47.209Z,99.90
2023-09-06T04:27:16.818Z,99.90
2023-09-06T04:29:44.169Z,99.90
2023-09-06T04:32:11.308Z,99.90
2023-09-06T04:34:40.992Z,99.90
2023-09-06T04:37:08.067Z,99.90
2023-09-06T04:39:35.390Z,99.90
2023-09-06T04:42:02.434Z,99.90
2023-09-06T04:44:32.054Z,99.90
2023-09-06T04:46:59.188Z,99.90
2023-09-06T04:49:29.064Z,99.90
2023-09-06T04:51:58.337Z,99.90
2023-09-06T04:54:30.435Z,99.90
2023-09-06T04:56:57.630Z,99.90
2023-09-06T04:59:27.541Z,99.90
2023-09-06T05:01:54.596Z,99.90
2023-09-06T05:04:24.220Z,99.90
2023-09-06T05:06:53.540Z,99.90
2023-09-06T05:09:23.186Z,99.90
2023-09-06T05:11:50.311Z,98.20
2023-09-06T05:14:20.202Z,95.10
2023-09-06T05:16:47.469Z,92.00
2023-09-06T05:19:14.945Z,89.40
2023-09-06T05:21:42.023Z,85.90
2023-09-06T05:24:09.470Z,81.70
2023-09-06T05:26:39.184Z,78.50
2023-09-06T05:29:06.590Z,76.10
2023-09-06T05:31:34.047Z,73.60
2023-09-06T05:34:01.537Z,71.40
2023-09-06T05:36:33.483Z,69.20
2023-09-06T05:39:00.770Z,67.80
2023-09-06T05:41:27.894Z,66.00
2023-09-06T05:43:57.523Z,64.70
2023-09-06T05:46:33.568Z,62.50
2023-09-06T05:49:01.777Z,61.10
2023-09-06T05:51:28.973Z,60.30
2023-09-06T05:53:56.349Z,58.80
2023-09-06T05:56:23.423Z,58.00
2023-09-06T05:58:55.436Z,57.00
2023-09-06T06:01:22.421Z,55.60
2023-09-06T06:03:52.457Z,55.30
2023-09-06T06:06:19.559Z,54.60
2023-09-06T06:08:47.161Z,53.60
2023-09-06T06:11:14.269Z,52.50
2023-09-06T06:13:43.477Z,52.30
2023-09-06T06:16:11.954Z,51.40
2023-09-06T06:18:41.742Z,51.30
2023-09-06T06:21:08.972Z,50.80
2023-09-06T06:23:36.364Z,50.50
2023-09-06T06:26:05.711Z,50.00
2023-09-06T06:28:33.340Z,49.70
2023-09-06T06:31:00.977Z,48.40
2023-09-06T06:33:30.598Z,47.80
2023-09-06T06:35:57.751Z,46.90
2023-09-06T06:38:28.162Z,46.80
2023-09-06T06:40:55.444Z,46.10
2023-09-06T06:43:22.842Z,45.00
2023-09-06T06:45:55.253Z,44.30
2023-09-06T06:48:23.090Z,43.80
2023-09-06T06:50:53.270Z,43.30
2023-09-06T06:53:22.989Z,42.70
2023-09-06T06:55:53.386Z,41.50
2023-09-06T06:58:20.864Z,41.20
2023-09-06T07:00:48.036Z,40.40
2023-09-06T07:03:15.605Z,40.50
2023-09-06T07:05:43.372Z,40.60
2023-09-06T07:08:15.694Z,40.10
2023-09-06T07:10:42.861Z,39.60
2023-09-06T07:13:15.084Z,38.60
2023-09-06T07:15:43.519Z,38.50
2023-09-06T07:18:13.346Z,38.20
2023-09-06T07:20:40.555Z,37.30
2023-09-06T07:23:08.157Z,36.30
2023-09-06T07:25:37.506Z,35.80
2023-09-06T07:28:05.112Z,35.70
2023-09-06T07:30:35.300Z,35.20
2023-09-06T07:33:02.778Z,34.50
2023-09-06T07:35:33.951Z,34.70
2023-09-06T07:38:01.961Z,34.50
2023-09-06T07:40:29.103Z,33.90
2023-09-06T07:42:58.708Z,34.00
2023-09-06T07:45:25.799Z,33.60
2023-09-06T07:47:55.832Z,33.10
2023-09-06T07:50:23.187Z,32.80
2023-09-06T07:52:50.668Z,32.30
2023-09-06T07:55:17.791Z,32.20
2023-09-06T07:57:45.180Z,31.80
2023-09-06T08:00:15.073Z,31.00
2023-09-06T08:02:44.753Z,30.60
2023-09-06T08:05:16.435Z,30.90
2023-09-06T08:07:46.075Z,30.70
2023-09-06T08:10:17.874Z,31.10
2023-09-06T08:12:45.341Z,30.20
2023-09-06T08:15:14.855Z,30.50
2023-09-06T08:17:42.267Z,30.80
2023-09-06T08:20:10.277Z,29.90
2023-09-06T08:22:44.794Z,29.80
2023-09-06T08:25:15.498Z,29.70
2023-09-06T08:27:43.097Z,29.50
2023-09-06T08:30:15.599Z,29.40
2023-09-06T08:32:45.304Z,29.00
2023-09-06T08:35:12.829Z,29.30
2023-09-06T08:37:40.961Z,29.40
2023-09-06T08:40:10.848Z,28.70
2023-09-06T08:42:40.024Z,28.90
2023-09-06T08:45:08.195Z,29.00
2023-09-06T08:47:38.258Z,30.00
2023-09-06T08:50:06.115Z,29.90
2023-09-06T08:52:34.591Z,29.70
2023-09-06T08:55:02.192Z,29.50
2023-09-06T08:57:29.832Z,29.50
2023-09-06T08:59:58.019Z,29.60
2023-09-06T09:02:25.445Z,29.80
2023-09-06T09:05:02.961Z,29.40
2023-09-06T09:07:40.577Z,29.40
2023-09-06T09:10:09.848Z,29.30
2023-09-06T09:12:39.161Z,29.50
2023-09-06T09:15:22.861Z,29.30
2023-09-06T09:18:00.613Z,29.20
2023-09-06T09:20:31.970Z,29.70
2023-09-06T09:23:03.727Z,30.00
2023-09-06T09:25:31.500Z,30.00
2023-09-06T09:27:59.883Z,30.20
2023-09-06T09:30:29.328Z,30.60
2023-09-06T09:33:04.298Z,29.30
2023-09-06T09:35:33.367Z,30.00
2023-09-06T09:38:02.627Z,30.00
2023-09-06T09:40:41.711Z,30.80
2023-09-06T09:43:21.232Z,30.00
2023-09-06T09:45:51.121Z,30.50
2023-09-06T09:48:19.724Z,30.40
2023-09-06T09:50:53.081Z,30.30
2023-09-06T09:53:24.662Z,30.20
2023-09-06T09:55:56.680Z,30.80
2023-09-06T09:58:25.692Z,31.20
2023-09-06T10:00:54.190Z,31.10
2023-09-06T10:03:23.566Z,31.00
2023-09-06T10:05:56.650Z,30.70
2023-09-06T10:08:32.165Z,30.50
2023-09-06T10:10:59.401Z,31.70
2023-09-06T10:13:33.326Z,32.20
2023-09-06T10:16:02.200Z,31.40
2023-09-06T10:18:30.260Z,32.20
2023-09-06T10:20:57.888Z,31.30
2023-09-06T10:23:26.602Z,31.70
2023-09-06T10:25:56.894Z,32.30
2023-09-06T10:28:27.178Z,31.80
2023-09-06T10:30:58.130Z,31.40
2023-09-06T10:33:31.644Z,32.00
2023-09-06T10:35:59.948Z,31.60
2023-09-06T10:38:27.624Z,33.20
2023-09-06T10:40:54.883Z,33.30
2023-09-06T10:43:53.495Z,32.80
2023-09-06T10:46:20.716Z,34.20
2023-09-06T10:49:16.185Z,33.90
2023-09-06T10:51:56.028Z,34.20
2023-09-06T10:54:40.705Z,35.40
2023-09-06T10:57:13.517Z,37.70
2023-09-06T10:59:44.844Z,37.10
2023-09-06T11:02:19.742Z,38.50
2023-09-06T11:05:03.430Z,39.70
2023-09-06T11:07:49.188Z,42.10
2023-09-06T11:10:25.099Z,44.10
2023-09-06T11:12:55.956Z,44.10
2023-09-06T11:15:26.037Z,44.60
2023-09-06T11:18:00.980Z,45.70
2023-09-06T11:20:28.634Z,46.20
2023-09-06T11:22:57.715Z,48.60
2023-09-06T11:25:28.903Z,49.90
2023-09-06T11:27:58.958Z,50.20
2023-09-06T11:30:27.059Z,50.40
2023-09-06T11:32:57.412Z,50.60
2023-09-06T11:35:34.514Z,49.20
2023-09-06T11:38:02.386Z,50.10
2023-09-06T11:40:33.511Z,50.90
2023-09-06T11:43:05.658Z,51.70
2023-09-06T11:45:33.688Z,52.50
2023-09-06T11:48:06.114Z,52.40
2023-09-06T11:50:34.175Z,53.20
2023-09-06T11:53:01.758Z,53.10
2023-09-06T11:55:32.314Z,53.00
2023-09-06T11:57:59.489Z,54.70
2023-09-06T12:00:35.301Z,56.70
2023-09-06T12:03:02.478Z,56.10
2023-09-06T12:05:46.247Z,56.80
2023-09-06T12:08:17.522Z,55.70
2023-09-06T12:10:45.495Z,57.00
2023-09-06T12:13:14.804Z,57.60
2023-09-06T12:15:42.247Z,56.10
2023-09-06T12:18:09.516Z,55.40
2023-09-06T12:20:39.165Z,55.50
2023-09-06T12:23:06.368Z,56.20
2023-09-06T12:25:36.264Z,58.00
2023-09-06T12:28:03.566Z,57.00
2023-09-06T12:30:31.147Z,56.90
2023-09-06T12:32:58.657Z,58.30
2023-09-06T12:35:26.301Z,59.20
2023-09-06T12:37:53.835Z,58.30
2023-09-06T12:40:21.444Z,57.00
2023-09-06T12:42:48.933Z,57.20
2023-09-06T12:45:25.586Z,58.00
2023-09-06T12:47:52.710Z,58.90
2023-09-06T12:50:22.833Z,58.90
2023-09-06T12:52:50.011Z,59.20
2023-09-06T12:55:22.269Z,60.20
2023-09-06T12:57:51.769Z,60.20
2023-09-06T13:00:21.523Z,60.30
2023-09-06T13:02:48.750Z,60.30
2023-09-06T13:05:16.401Z,60.30
2023-09-06T13:07:46.166Z,59.90
2023-09-06T13:10:16.540Z,60.20
2023-09-06T13:12:45.971Z,60.60
2023-09-06T13:15:13.425Z,61.10
2023-09-06T13:17:40.755Z,60.90
2023-09-06T13:20:13.802Z,61.40
2023-09-06T13:22:43.236Z,61.10
2023-09-06T13:25:11.697Z,61.10
2023-09-06T13:27:38.888Z,60.90
2023-09-06T13:30:07.123Z,61.90
2023-09-06T13:32:36.714Z,61.80
2023-09-06T13:35:04.412Z,61.00
2023-09-06T13:37:34.093Z,60.30
2023-09-06T13:40:01.525Z,60.20
2023-09-06T13:42:28.967Z,59.90
2023-09-06T13:44:56.615Z,60.00
2023-09-06T13:47:26.178Z,59.20
2023-09-06T13:49:53.706Z,60.00
2023-09-06T13:52:20.880Z,60.80
2023-09-06T13:54:48.302Z,60.90
2023-09-06T13:57:15.388Z,59.90
2023-09-06T13:59:42.806Z,60.00
2023-09-06T14:02:10.091Z,58.80
2023-09-06T14:04:43.189Z,58.90
2023-09-06T14:07:10.369Z,59.20
2023-09-06T14:09:40.091Z,59.20
2023-09-06T14:12:07.728Z,58.40
2023-09-06T14:14:35.132Z,58.40
2023-09-06T14:17:02.328Z,58.90
2023-09-06T14:19:32.477Z,58.40
2023-09-06T14:22:01.870Z,58.70
2023-09-06T14:24:29.323Z,59.20
2023-09-06T14:26:56.457Z,59.10
2023-09-06T14:29:26.049Z,59.40
2023-09-06T14:31:55.787Z,59.70
2023-09-06T14:34:25.821Z,59.60
2023-09-06T14:36:53.083Z,60.90
2023-09-06T14:39:20.587Z,61.30
2023-09-06T14:41:47.784Z,61.50
2023-09-06T14:44:17.778Z,61.60
2023-09-06T14:46:44.949Z,61.50
2023-09-06T14:49:12.379Z,61.00
2023-09-06T14:51:39.540Z,61.30
2023-09-06T14:54:07.888Z,61.50
2023-09-06T14:56:37.993Z,61.80
2023-09-06T14:59:08.163Z,61.30
2023-09-06T15:01:37.586Z,61.40
2023-09-06T15:04:05.494Z,61.50
2023-09-06T15:06:48.016Z,61.60
2023-09-06T15:09:20.279Z,62.00
2023-09-06T15:11:47.662Z,61.10
2023-09-06T15:14:17.629Z,61.20
2023-09-06T15:16:47.199Z,61.40
2023-09-06T15:19:14.907Z,60.90
2023-09-06T15:21:44.625Z,61.50
2023-09-06T15:24:12.362Z,61.30
2023-09-06T15:26:40.173Z,61.10
2023-09-06T15:29:07.676Z,61.40
2023-09-06T15:31:37.022Z,61.80
2023-09-06T15:34:04.523Z,62.00
2023-09-06T15:36:32.033Z,62.50
2023-09-06T15:39:01.706Z,62.40
2023-09-06T15:41:31.493Z,62.60
2023-09-06T15:43:59.774Z,62.50
2023-09-06T15:46:27.029Z,62.70
2023-09-06T15:48:57.173Z,63.30
2023-09-06T15:51:24.706Z,63.70
2023-09-06T15:53:52.282Z,64.00
2023-09-06T15:56:21.687Z,64.30
2023-09-06T15:58:49.122Z,63.60
2023-09-06T16:01:16.312Z,63.10
2023-09-06T16:03:43.998Z,63.50
2023-09-06T16:06:13.749Z,64.20
2023-09-06T16:08:43.680Z,63.80
2023-09-06T16:11:13.001Z,64.10
2023-09-06T16:13:42.611Z,64.50
2023-09-06T16:16:09.785Z,64.90
2023-09-06T16:18:39.768Z,65.60
2023-09-06T16:21:07.010Z,65.70
2023-09-06T16:23:34.970Z,65.60
2023-09-06T16:26:09.788Z,66.00
2023-09-06T16:28:37.486Z,66.50
2023-09-06T16:31:06.381Z,67.00
2023-09-06T16:33:34.046Z,67.00
2023-09-06T16:36:01.377Z,67.20
2023-09-06T16:38:32.491Z,67.60
2023-09-06T16:41:05.105Z,67.90
2023-09-06T16:43:32.557Z,68.60
2023-09-06T16:45:59.825Z,69.40
2023-09-06T16:48:30.257Z,70.30
2023-09-06T16:50:57.692Z,70.70
2023-09-06T16:53:25.124Z,71.30
2023-09-06T16:55:52.337Z,72.10
2023-09-06T16:58:20.425Z,72.60
2023-09-06T17:00:51.971Z,73.20
2023-09-06T17:03:19.512Z,74.20
2023-09-06T17:05:47.047Z,75.10
2023-09-06T17:08:23.378Z,75.10
2023-09-06T17:10:50.553Z,76.10
2023-09-06T17:13:22.711Z,76.30
2023-09-06T17:15:55.028Z,77.60
2023-09-06T17:18:24.756Z,78.20
2023-09-06T17:20:51.846Z,78.80
2023-09-06T17:23:19.203Z,79.80
2023-09-06T17:25:48.808Z,81.00
2023-09-06T17:28:18.841Z,82.00
2023-09-06T17:30:45.999Z,83.10
2023-09-06T17:33:17.073Z,84.40
2023-09-06T17:35:49.968Z,85.50
2023-09-06T17:38:18.653Z,87.40
2023-09-06T17:40:49.977Z,89.10
2023-09-06T17:43:17.660Z,90.80
2023-09-06T17:45:48.282Z,91.10
2023-09-06T17:48:18.457Z,92.00
2023-09-06T17:50:52.900Z,92.80
2023-09-06T17:53:24.186Z,93.60
2023-09-06T17:56:00.313Z,94.80
2023-09-06T17:58:28.714Z,96.90
2023-09-06T18:00:56.049Z,99.60
2023-09-06T18:03:23.666Z,99.90
2023-09-06T18:05:51.532Z,99.90
2023-09-06T18:08:19.531Z,99.90
2023-09-06T18:10:49.188Z,99.90
2023-09-06T18:13:16.887Z,99.90
2023-09-06T18:15:44.334Z,99.90
2023-09-06T18:18:12.508Z,99.90
2023-09-06T18:20:44.241Z,99.90
2023-09-06T18:23:14.402Z,99.90
2023-09-06T18:25:42.069Z,99.90
2023-09-06T18:28:10.002Z,99.90
2023-09-06T18:30:43.826Z,99.90
2023-09-06T18:33:16.013Z,99.90
2023-09-06T18:35:45.568Z,99.90
2023-09-06T18:38:17.739Z,99.90
2023-09-06T18:40:52.277Z,99.90
2023-09-06T18:43:21.207Z,99.90
2023-09-06T18:45:54.637Z,99.90
2023-09-06T18:48:24.519Z,99.90
2023-09-06T18:50:51.989Z,99.90
2023-09-06T18:53:21.958Z,99.90
2023-09-06T18:55:49.132Z,99.90
2023-09-06T18:58:16.963Z,99.90
2023-09-06T19:00:45.143Z,99.90
2023-09-06T19:03:13.056Z,99.90
2023-09-06T19:05:44.660Z,99.90
2023-09-06T19:08:14.564Z,99.90
2023-09-06T19:10:45.046Z,99.90
2023-09-06T19:13:14.815Z,99.90
2023-09-06T19:15:47.265Z,99.90
2023-09-06T19:18:15.745Z,99.90
2023-09-06T19:20:42.905Z,99.90
2023-09-06T19:23:10.411Z,99.90
2023-09-06T19:25:40.098Z,99.90
2023-09-06T19:28:07.627Z,99.90
2023-09-06T19:30:34.862Z,99.90
2023-09-06T19:33:02.596Z,99.90
2023-09-06T19:35:32.121Z,99.90
2023-09-06T19:38:01.868Z,99.90
2023-09-06T19:40:33.879Z,99.90
2023-09-06T19:43:01.290Z,99.90
2023-09-06T19:45:28.479Z,99.90
2023-09-06T19:47:55.933Z,99.90
2023-09-06T19:50:23.208Z,99.90
2023-09-06T19:52:50.666Z,99.90
2023-09-06T19:55:17.960Z,99.90
2023-09-06T19:57:47.634Z,99.90
2023-09-06T20:00:15.011Z,99.90
2023-09-06T20:02:42.701Z,99.90
2023-09-06T20:05:12.886Z,99.90
2023-09-06T20:07:42.586Z,99.90
2023-09-06T20:10:09.841Z,99.90
2023-09-06T20:12:39.431Z,99.90
2023-09-06T20:15:09.605Z,99.90
2023-09-06T20:17:37.108Z,99.90
2023-09-06T20:20:04.733Z,99.90
2023-09-06T20:22:32.089Z,99.90
2023-09-06T20:24:59.137Z,99.90
2023-09-06T20:27:26.564Z,99.90
2023-09-06T20:29:56.267Z,99.90
2023-09-06T20:32:23.643Z,99.90
2023-09-06T20:34:50.789Z,99.90
2023-09-06T20:37:18.230Z,99.90
2023-09-06T20:39:45.332Z,99.90
2023-09-06T20:42:15.225Z,99.90
2023-09-06T20:44:42.354Z,99.90
2023-09-06T20:47:09.803Z,99.90
2023-09-06T20:49:36.864Z,99.90
2023-09-06T20:52:04.558Z,99.90
2023-09-06T20:54:31.680Z,99.90
2023-09-06T20:56:59.121Z,99.90
2023-09-06T20:59:28.455Z,99.90
2023-09-06T21:01:55.941Z,99.90
2023-09-06T21:04:25.649Z,99.90
2023-09-06T21:06:53.114Z,99.90
2023-09-06T21:09:20.579Z,99.90
2023-09-06T21:11:47.980Z,99.90
2023-09-06T21:14:16.654Z,99.90
2023-09-06T21:16:46.302Z,99.90
2023-09-06T21:19:15.915Z,99.90
2023-09-06T21:21:43.360Z,99.90
2023-09-06T21:24:10.631Z,99.90
2023-09-06T21:26:39.505Z,99.90
2023-09-06T21:29:18.050Z,99.90
2023-09-06T21:31:52.218Z,99.90
2023-09-06T21:34:24.166Z,99.90
2023-09-06T21:36:51.780Z,99.90
2023-09-06T21:39:19.064Z,99.90
2023-09-06T21:41:48.912Z,99.90
2023-09-06T21:44:15.990Z,99.90
2023-09-06T21:46:45.706Z,99.90
2023-09-06T21:49:15.311Z,99.90
2023-09-06T21:51:42.740Z,99.90
2023-09-06T21:54:09.825Z,99.90
2023-09-06T21:56:37.274Z,99.90
2023-09-06T21:59:04.513Z,99.90
2023-09-06T22:01:32.043Z,99.90
2023-09-06T22:03:59.228Z,99.90
2023-09-06T22:06:26.734Z,99.90
2023-09-06T22:08:54.442Z,99.90
2023-09-06T22:11:24.367Z,99.90
2023-09-06T22:13:51.441Z,99.90
2023-09-06T22:16:18.896Z,99.90
2023-09-06T22:18:46.603Z,99.90
2023-09-06T22:21:16.549Z,99.90
2023-09-06T22:23:46.130Z,99.90
2023-09-06T22:26:13.495Z,99.90
2023-09-06T22:28:40.602Z,99.90
2023-09-06T22:31:10.567Z,99.90
2023-09-06T22:33:39.931Z,99.90
2023-09-06T22:36:07.322Z,99.90
2023-09-06T22:38:36.647Z,99.90
2023-09-06T22:41:04.062Z,99.90
2023-09-06T22:43:31.182Z,99.90
2023-09-06T22:45:58.651Z,99.90
2023-09-06T22:48:26.492Z,99.90
2023-09-06T22:50:57.625Z,99.90
2023-09-06T22:53:27.203Z,99.90
2023-09-06T22:55:54.553Z,99.90
2023-09-06T22:58:21.758Z,99.90
2023-09-06T23:00:49.330Z,99.90
2023-09-06T23:03:16.481Z,99.90
2023-09-06T23:05:44.798Z,99.90
2023-09-06T23:08:12.011Z,99.90
2023-09-06T23:10:39.460Z,99.90
2023-09-06T23:13:09.165Z,99.90
2023-09-06T23:15:38.584Z,99.90
2023-09-06T23:18:05.685Z,99.90
2023-09-06T23:20:33.121Z,99.90
2023-09-06T23:23:00.240Z,99.90
2023-09-06T23:25:29.166Z,99.90
2023-09-06T23:27:56.384Z,99.90
2023-09-06T23:30:25.990Z,99.90
2023-09-06T23:32:55.281Z,99.90
2023-09-06T23:35:23.440Z,99.90
2023-09-06T23:37:50.555Z,99.90
2023-09-06T23:40:18.113Z,99.90
2023-09-06T23:42:48.431Z,99.90
2023-09-06T23:45:19.773Z,99.90
2023-09-06T23:47:59.088Z,99.90
2023-09-06T23:50:26.621Z,99.90
2023-09-06T23:52:53.931Z,99.90
2023-09-06T23:55:21.632Z,99.90
2023-09-06T23:57:50.018Z,99.90
